Startpagina
METAR-TAF:

METAR-TAF

Vliegvelden :

Marham, Engeland

breedte: 52-39N, lengte: 000-34E, hoogte: 23 m

Actueel weer

Dit bericht is 22 minuten geleden gemaakt, om 19:50 UTC
Wind 8 kt uit het zuidzuidwesten
Temperatuur 6°C
Vochtigheid 100%
Druk 1021 hPa
Zicht: 4900 m
nevel

METAR: EGYM 241950Z AUTO 20008KT 4900 BR OVC024/// 06/06 Q1021

Tijdstip: 20:12 (20:12 UTC)


TAF: ontbreekt

Waarnemingen en weersverwachtingen van meer dan 4000 vliegvelden (METAR en TAF).

De beschikbare stations zijn de gele en rode punten op de kaart.

Ga met uw muis naar het station om de naam te zien.

Klik dan om waarnemingen en weersverwachtingen te zien.

kaart wijzigen: klik op de groene knoppen met een zwart kruis om in te zoomen, op de groene knop met een streepje om uit te zoomen of op de groene pijlen voor aangrenzende kaarten.


METAR-TAF: